Juneau, Alaska
Current Conditions -  °F | °C
As of 3:53 PM on Tuesday 21 Oct 2014 (Local Time) from PAJN Reporting Station
Overcast Overcast  
Wind Chill: 45°   Ceiling: 8500
Heat Index: 47°   Visibility: 10mi
Dew Point: 41°   Wind: 5mph
Humidity: 80%   Direction: 190°S
Pressure: 29.17"   Gusts: NA
Location:  58.37°N, 134.57°W
Report Text: PAJN 212353Z 19004KT 10SM FEW050 BKN085 OVC110 08/05 A2917 RMK AO2 SLP878 VIRGA SW BINOVC 60000 T00830050 10117 20044 57014
Loading
Personal Weather Stations






























Interactive Weather Map
Tropical Storm Tracking
New forecast layout! Learn more

10-Day Weather Forecast

Advertisements
Track Severe Weather on mobile